Last 30 Days

AM-Roundhouse Btm 6950'

Daily Data | America/Los_Angeles
as of 6/27/22 5:35 PM PDT
Date Daily Max Temp (°F) Time of Max Temp Daily Min Temp (°F) Time of Min Temp Wind Spd (mph) Daily Max Wind (mph) Max Wind Dir (°) Time of Max Wind Daily Rain (In) Seasonal Rainfall (In) SnowDepth (in) Max RH (%) Min RH (%) Wet Bulb (°F) WetB Hrs <28F (hrs) Min Press (inHg) Time of Min Press MinBV Day (V)
6/26/22 77.3 1300 55.0 0459 2.9 18.4 SSE | 148 1515 0.01 44.06 0.7 61 22 50.6 0.0 30.25 0305 13.1
6/25/22 75.2 1326 53.4 0629 2.1 10.3 ENE | 70 1743 0.00 44.05 0.6 75 24 49.7 0.0 30.19 0130 13.1
6/24/22 73.2 1428 49.2 0613 2.5 13.9 SE | 132 1259 0.04 44.05 0.3 71 16 48.2 0.0 30.16 0405 13.2
6/23/22 68.3 1149 51.3 1740 2.7 17.1 SSW | 210 1626 0.01 44.01 0.1 88 34 49.2 0.0 30.15 0535 13.1
6/22/22 74.0 1240 53.1 0606 2.5 12.2 SSE | 163 1742 0.04 44.00 0.2 50 16 47.0 0.0 30.17 2050 13.1
6/21/22 71.8 1759 45.9 0501 2.4 12.6 N | 6 1659 0.05 43.96 0.6 54 16 43.2 0.0 30.22 0015 13.1
6/20/22 64.0 1713 38.0 0521 1.8 10.4 N | 6 1720 0.00 43.91 0.4 87 18 41.6 0.0 30.17 0425 13.1
6/19/22 56.0 1257 32.4 0553 2.5 16.7 SE | 132 1510 0.04 43.91 0.6 94 30 38.6 0.0 30.06 0045 13.1
6/18/22 47.2 1452 34.9 2359 2.9 19.1 SSE | 156 1248 0.00 43.87 0.1 84 43 34.7 0.0 29.91 0001 13.1
6/17/22 50.0 0006 36.9 2359 5.6 23.9 SSW | 193 0420 0.00 43.87 0.7 80 15 34.6 0.0 29.84 0125 13.1
6/16/22 64.2 1435 49.7 2357 7.6 26.5 SSE | 165 1835 0.00 43.87 0.0 55 19 44.0 0.0 29.86 2355 13.1
6/15/22 72.4 1235 43.1 0624 3.0 19.0 SSE | 156 1419 0.08 43.87 0.8 55 22 44.4 0.0 30.09 2350 13.1
6/14/22 62.6 1429 35.6 0533 2.4 18.0 SE | 140 1538 0.02 43.79 0.0 74 16 39.4 0.0 30.12 1050 13.1
6/13/22 55.2 1808 39.4 2359 3.7 21.8 S | 170 1142 0.00 43.77 0.6 88 40 40.5 0.0 29.98 0005 13.1
6/12/22 58.5 0001 45.3 2358 6.2 37.4 SE | 134 1141 0.00 43.77 0.6 96 50 48.4 0.0 29.93 1230 13.1
6/11/22 69.8 1329 57.6 0504 4.2 22.3 S | 171 1638 0.09 43.77 0.0 76 30 51.1 0.0 30.11 2355 13.1
6/10/22 75.3 1440 52.6 0558 3.8 19.5 SSE | 162 1458 0.14 43.68 0.0 71 17 50.4 0.0 30.18 0320 13.1
6/9/22 74.1 1317 50.0 0534 2.4 17.0 SE | 138 1510 0.17 43.54 0.0 66 33 50.6 0.0 30.11 0335 13.1
6/8/22 68.9 1403 51.7 0637 3.3 19.5 SSE | 149 1721 0.17 43.37 0.0 66 11 45.5 0.0 30.10 1845 13.1
6/7/22 69.3 1346 44.3 0620 2.6 13.9 SSE | 147 1250 0.05 43.20 0.0 53 12 41.6 0.0 30.11 0300 13.1
6/6/22 62.7 1344 40.9 0556 3.3 15.9 S | 178 1421 0.00 43.15 0.2 89 19 42.0 0.0 30.08 0345 13.1
6/5/22 51.0 1450 42.9 0205 6.0 26.1 ESE | 121 1449 0.00 43.15 0.3 98 80 46.5 0.0 30.00 0400 13.1
6/4/22 49.4 0005 41.0 0538 4.7 20.1 SE | 134 2311 0.00 43.15 0.2 95 56 41.5 0.0 29.98 0220 13.2
6/3/22 59.8 1131 46.8 0132 5.0 26.1 SE | 126 1511 0.02 43.15 0.0 83 41 45.0 0.0 30.00 1220 13.2
6/2/22 64.8 1304 47.4 2333 3.7 19.0 SSE | 168 1320 0.00 43.13 0.0 70 27 44.0 0.0 30.03 2340 13.1
6/1/22 65.4 1647 41.6 0503 2.8 18.3 S | 181 1538 0.00 43.13 0.0 60 24 41.6 0.0 30.09 2340 13.1
5/31/22 58.2 1735 31.4 0606 2.7 20.0 NNW | 339 0833 0.00 43.13 0.0 84 26 36.1 0.0 30.01 0500 13.1
5/30/22 49.7 1337 33.8 0528 2.5 18.6 SSE | 148 1143 0.00 43.13 0.3 82 41 36.1 0.0 29.94 0455 13.1
5/29/22 50.0 1439 35.1 0515 3.9 19.7 SSE | 151 1931 0.00 43.13 0.1 92 40 37.3 0.0 29.91 0405 13.1
5/28/22 47.6 1259 37.1 0527 6.0 25.0 SE | 144 1218 0.00 43.13 0.1 99 63 39.9 0.0 29.91 1945 13.1
Max 77.3 - 57.6 - 7.6 37.4 - - 0.17 44.06 0.8 99 80 51.1 0.0 30.25 - 13.2
Avg - - - - 3.6 - - - - - 0.3 - - 43.5 - - - -
Min 47.2 - 31.4 - 1.8 10.3 - - 0.00 43.13 0.0 50 11 34.6 0.0 29.84 - 13.1